Weather at Allegheny County Airport

Public forecast

Using degrees Fahrenheit for public forecast. Weather courtesy of forecast.io.

Current aviation weather report (METAR) for Allegheny County Airport

Report is more than 6 hours old.

2022/11/14 14:53 (retrieved 2 years ago)

KAGC 141453Z 00000KT 10SM SCT021 OVC044 03/M03 A3036 RMK AO2 SLP298 T00281028 51008

Aviation forecast (TAF) for Allegheny County Airport

Forecast is more than 12 hours old.

2023/02/22 18:33 (retrieved 1 year ago)

TAF KAGC 221729Z 2218/2318 12010KT 4SM BR OVC009 FM222300 16009KT P6SM OVC060 WS020/22035KT FM230500 21020G32KT 6SM -SHRA BKN045 WS020/22050KT FM230700 23024G38KT 6SM -SHRA BKN030 FM231000 25019G30KT P6SM BKN021 FM231200 24013G21KT P6SM BKN017